createdAt,value
2022-12-18T08:32:31.128Z,45.68
2022-12-18T08:32:42.412Z,45.42
2022-12-18T08:32:53.959Z,45.12
2022-12-18T08:33:05.248Z,45.05
2022-12-18T08:33:16.795Z,44.99
2022-12-18T08:33:28.110Z,44.95
2022-12-18T08:33:40.115Z,44.94
2022-12-18T08:33:50.644Z,44.91
2022-12-18T08:34:02.193Z,44.85
2022-12-18T08:34:13.480Z,44.85
2022-12-18T08:34:25.015Z,44.85
2022-12-18T08:34:36.303Z,44.83
2022-12-18T08:34:47.843Z,44.80
2022-12-18T08:34:59.120Z,44.79
2022-12-18T08:35:10.659Z,44.76
2022-12-18T08:35:21.955Z,44.76
2022-12-18T08:35:37.819Z,44.72
2022-12-18T08:35:46.092Z,44.82
2022-12-18T08:35:55.467Z,44.74
2022-12-18T08:36:07.001Z,44.69
2022-12-18T08:36:18.285Z,44.70
2022-12-18T08:36:29.859Z,44.67
2022-12-18T08:36:41.157Z,44.67
2022-12-18T08:36:52.705Z,44.63
2022-12-18T08:37:03.979Z,44.66
2022-12-18T08:37:15.944Z,44.61
2022-12-18T08:37:27.229Z,44.61
2022-12-18T08:37:38.981Z,44.58
2022-12-18T08:37:50.313Z,44.62
2022-12-18T08:38:01.913Z,44.57
2022-12-18T08:38:13.301Z,44.60
2022-12-18T08:38:24.872Z,44.56
2022-12-18T08:38:36.173Z,44.55
2022-12-18T08:38:47.770Z,44.55
2022-12-18T08:38:59.098Z,44.53
2022-12-18T08:39:09.455Z,44.58
2022-12-18T08:39:21.006Z,44.54
2022-12-18T08:39:32.336Z,44.55
2022-12-18T08:39:43.881Z,44.50
2022-12-18T08:39:55.182Z,44.51
2022-12-18T08:40:06.735Z,44.45
2022-12-18T08:40:18.059Z,44.47
2022-12-18T08:40:29.606Z,44.47
2022-12-18T08:40:40.879Z,44.46
2022-12-18T08:40:52.414Z,44.46
2022-12-18T08:41:03.691Z,44.49
2022-12-18T08:41:15.243Z,44.46
2022-12-18T08:41:26.530Z,44.45
2022-12-18T08:41:38.070Z,44.40
2022-12-18T08:41:49.358Z,44.41
2022-12-18T08:42:04.182Z,44.42
2022-12-18T08:42:12.821Z,44.49
2022-12-18T08:42:24.106Z,44.47
2022-12-18T08:42:35.667Z,44.40
2022-12-18T08:42:47.021Z,44.40
2022-12-18T08:42:57.126Z,44.42
2022-12-18T08:43:08.680Z,44.39
2022-12-18T08:43:19.963Z,44.38
2022-12-18T08:43:31.517Z,44.37
2022-12-18T08:43:43.119Z,44.37
2022-12-18T08:43:54.807Z,44.40
2022-12-18T08:44:06.214Z,44.38
2022-12-18T08:44:17.757Z,44.37
2022-12-18T08:44:29.037Z,44.38
2022-12-18T08:44:40.566Z,44.34
2022-12-18T08:44:51.852Z,44.34
2022-12-18T08:45:03.413Z,44.37
2022-12-18T08:45:14.708Z,44.31
2022-12-18T08:45:26.261Z,44.33
2022-12-18T08:45:37.629Z,44.32
2022-12-18T08:45:49.298Z,44.34
2022-12-18T08:46:00.775Z,44.31
2022-12-18T08:46:12.414Z,44.31
2022-12-18T08:46:23.921Z,44.32
2022-12-18T08:46:35.644Z,44.28
2022-12-18T08:46:47.041Z,44.31
2022-12-18T08:46:58.592Z,44.28
2022-12-18T08:47:09.891Z,44.28
2022-12-18T08:47:21.440Z,44.30
2022-12-18T08:47:32.802Z,44.29
2022-12-18T08:47:44.492Z,44.28
2022-12-18T08:47:56.022Z,44.30
2022-12-18T08:48:07.558Z,44.27
2022-12-18T08:48:22.163Z,44.27
2022-12-18T08:48:29.484Z,44.40
2022-12-18T08:48:40.769Z,44.33
2022-12-18T08:48:52.315Z,44.30
2022-12-18T08:49:03.610Z,44.25
2022-12-18T08:49:15.461Z,44.24
2022-12-18T08:49:26.754Z,44.24
2022-12-18T08:49:38.309Z,44.23
2022-12-18T08:49:49.603Z,44.25
2022-12-18T08:50:01.162Z,44.25
2022-12-18T08:50:12.452Z,44.24
2022-12-18T08:50:23.990Z,44.22
2022-12-18T08:50:35.303Z,44.25
2022-12-18T08:50:46.863Z,44.21
2022-12-18T08:50:58.145Z,44.21
2022-12-18T08:51:09.790Z,44.22
2022-12-18T08:51:21.068Z,44.20
2022-12-18T08:51:32.635Z,44.20
2022-12-18T08:51:43.932Z,44.21
2022-12-18T08:51:55.486Z,44.19
2022-12-18T08:52:06.781Z,44.21
2022-12-18T08:52:18.326Z,44.19
2022-12-18T08:52:29.633Z,44.20
2022-12-18T08:52:41.186Z,44.20
2022-12-18T08:52:52.473Z,44.18
2022-12-18T08:53:04.055Z,44.18
2022-12-18T08:53:15.335Z,44.18
2022-12-18T08:53:36.095Z,44.16
2022-12-18T08:53:39.317Z,44.26
2022-12-18T08:53:51.178Z,44.18
2022-12-18T08:54:02.476Z,44.15
2022-12-18T08:54:12.576Z,44.20
2022-12-18T08:54:24.139Z,44.19
2022-12-18T08:54:35.415Z,44.16
2022-12-18T08:54:46.968Z,44.16
2022-12-18T08:54:58.266Z,44.16
2022-12-18T08:55:09.818Z,44.16
2022-12-18T08:55:21.105Z,44.12
2022-12-18T08:55:31.838Z,44.21
2022-12-18T08:55:47.146Z,44.17
2022-12-18T08:55:55.304Z,44.26
2022-12-18T08:56:06.592Z,44.19
2022-12-18T08:56:18.134Z,44.18
2022-12-18T08:56:29.420Z,44.14
2022-12-18T08:56:40.956Z,44.15
2022-12-18T08:56:52.229Z,44.14
2022-12-18T08:57:03.774Z,44.13
2022-12-18T08:57:15.056Z,44.12
2022-12-18T08:57:26.599Z,44.13
2022-12-18T08:57:37.898Z,44.12
2022-12-18T08:57:49.439Z,44.13
2022-12-18T08:58:00.723Z,44.12
2022-12-18T08:58:12.314Z,44.12
2022-12-18T08:58:23.602Z,44.12
2022-12-18T08:58:35.156Z,44.11
2022-12-18T08:58:46.448Z,44.11
2022-12-18T08:58:58.007Z,44.10
2022-12-18T08:59:13.165Z,44.11
2022-12-18T08:59:21.220Z,44.28
2022-12-18T08:59:32.843Z,44.20
2022-12-18T08:59:44.396Z,44.15
2022-12-18T08:59:55.694Z,44.12
2022-12-18T09:00:07.252Z,44.10
2022-12-18T09:00:18.549Z,44.11
2022-12-18T09:00:30.104Z,44.10
2022-12-18T09:00:41.386Z,44.11
2022-12-18T09:00:53.022Z,44.09
2022-12-18T09:01:04.481Z,44.09
2022-12-18T09:01:14.761Z,44.14
2022-12-18T09:01:26.694Z,44.09
2022-12-18T09:01:38.270Z,44.10
2022-12-18T09:01:50.053Z,44.09
2022-12-18T09:02:01.777Z,44.10
2022-12-18T09:02:13.653Z,44.11
2022-12-18T09:02:25.277Z,44.07
2022-12-18T09:02:37.075Z,44.07
2022-12-18T09:02:48.677Z,44.12
2022-12-18T09:02:58.761Z,44.11
2022-12-18T09:03:10.395Z,44.08
2022-12-18T09:03:21.812Z,44.08
2022-12-18T09:03:33.467Z,44.11
2022-12-18T09:03:45.308Z,44.09
2022-12-18T09:03:57.030Z,44.09
2022-12-18T09:04:08.324Z,44.07
2022-12-18T09:04:19.910Z,44.07
2022-12-18T09:04:31.192Z,44.06
2022-12-18T09:04:42.748Z,44.05
2022-12-18T09:04:57.572Z,44.06
2022-12-18T09:05:04.918Z,44.18
2022-12-18T09:05:16.203Z,44.14
2022-12-18T09:05:27.753Z,44.09
2022-12-18T09:05:39.029Z,44.05
2022-12-18T09:05:50.569Z,44.02
2022-12-18T09:06:01.857Z,44.05
2022-12-18T09:06:13.404Z,44.06
2022-12-18T09:06:24.674Z,44.02
2022-12-18T09:06:36.233Z,44.03
2022-12-18T09:06:46.369Z,44.01
2022-12-18T09:06:57.913Z,44.03
2022-12-18T09:07:09.187Z,44.04
2022-12-18T09:07:20.719Z,44.03
2022-12-18T09:07:32.041Z,44.04
2022-12-18T09:07:43.576Z,44.02
2022-12-18T09:07:54.864Z,44.03
2022-12-18T09:08:06.422Z,44.02
2022-12-18T09:08:17.711Z,44.05
2022-12-18T09:08:29.270Z,44.03
2022-12-18T09:08:41.039Z,44.04
2022-12-18T09:08:52.798Z,44.02
2022-12-18T09:09:04.091Z,44.04
2022-12-18T09:09:15.643Z,44.02
2022-12-18T09:09:26.923Z,44.04
2022-12-18T09:09:38.455Z,44.00
2022-12-18T09:09:49.728Z,44.02
2022-12-18T09:10:01.272Z,44.00
2022-12-18T09:10:12.560Z,44.01
2022-12-18T09:10:24.102Z,44.01
2022-12-18T09:10:40.169Z,43.99
2022-12-18T09:10:47.314Z,44.16
2022-12-18T09:10:58.597Z,44.08
2022-12-18T09:11:10.146Z,44.02
2022-12-18T09:11:21.469Z,44.01
2022-12-18T09:11:33.004Z,44.00
2022-12-18T09:11:44.289Z,44.01
2022-12-18T09:11:55.828Z,44.02
2022-12-18T09:12:07.123Z,44.01
2022-12-18T09:12:18.661Z,44.01
2022-12-18T09:12:29.935Z,44.01
2022-12-18T09:12:41.484Z,44.01
2022-12-18T09:12:52.784Z,43.98
2022-12-18T09:13:04.320Z,43.99
2022-12-18T09:13:15.595Z,43.98
2022-12-18T09:13:27.137Z,43.99
2022-12-18T09:13:38.762Z,43.97
2022-12-18T09:13:50.600Z,43.97
2022-12-18T09:14:01.885Z,43.98
2022-12-18T09:14:13.420Z,43.99
2022-12-18T09:14:24.696Z,43.97
2022-12-18T09:14:36.238Z,43.98
2022-12-18T09:14:47.530Z,43.96
2022-12-18T09:14:59.073Z,43.96
2022-12-18T09:15:10.350Z,43.97
2022-12-18T09:15:21.892Z,43.97
2022-12-18T09:15:33.177Z,44.00
2022-12-18T09:15:44.723Z,43.96
2022-12-18T09:15:56.013Z,43.96
2022-12-18T09:16:07.575Z,43.96
2022-12-18T09:16:18.919Z,43.97
2022-12-18T09:16:32.726Z,43.96
2022-12-18T09:16:42.168Z,43.99
2022-12-18T09:16:53.831Z,43.96
2022-12-18T09:17:05.303Z,43.99
2022-12-18T09:17:17.004Z,43.95
2022-12-18T09:17:28.395Z,43.96
2022-12-18T09:17:39.952Z,43.96
2022-12-18T09:17:51.355Z,43.94
2022-12-18T09:18:02.895Z,43.93
2022-12-18T09:18:14.184Z,43.95
2022-12-18T09:18:25.718Z,43.95
2022-12-18T09:18:37.353Z,43.94
2022-12-18T09:18:49.092Z,43.94
2022-12-18T09:19:00.449Z,43.96
2022-12-18T09:19:12.040Z,43.94
2022-12-18T09:19:23.332Z,43.90
2022-12-18T09:19:34.867Z,43.92
2022-12-18T09:19:46.157Z,43.92
2022-12-18T09:19:57.716Z,43.91
2022-12-18T09:20:08.989Z,43.91
2022-12-18T09:20:20.522Z,43.93
2022-12-18T09:20:31.798Z,43.92
2022-12-18T09:20:43.329Z,43.90
2022-12-18T09:20:54.615Z,43.91
2022-12-18T09:21:06.146Z,43.91
2022-12-18T09:21:17.432Z,43.90
2022-12-18T09:21:28.986Z,43.93
2022-12-18T09:21:43.507Z,43.92
2022-12-18T09:21:52.189Z,44.07
2022-12-18T09:22:03.474Z,43.98
2022-12-18T09:22:15.018Z,43.92
2022-12-18T09:22:26.300Z,43.90
2022-12-18T09:22:37.850Z,43.92
2022-12-18T09:22:49.141Z,43.90
2022-12-18T09:22:59.143Z,43.95
2022-12-18T09:23:10.680Z,43.91
2022-12-18T09:23:21.952Z,43.92
2022-12-18T09:23:33.487Z,43.90
2022-12-18T09:23:44.764Z,43.90
2022-12-18T09:23:56.357Z,43.90
2022-12-18T09:24:08.820Z,43.90
2022-12-18T09:24:18.332Z,43.96
2022-12-18T09:24:29.875Z,43.92
2022-12-18T09:24:41.193Z,43.92
2022-12-18T09:24:52.736Z,43.89
2022-12-18T09:25:04.021Z,43.90
2022-12-18T09:25:15.565Z,43.90
2022-12-18T09:25:26.947Z,43.87
2022-12-18T09:25:38.504Z,43.86
2022-12-18T09:25:49.811Z,43.87
2022-12-18T09:26:01.359Z,43.87
2022-12-18T09:26:12.646Z,43.86
2022-12-18T09:26:24.178Z,43.87
2022-12-18T09:26:35.466Z,43.87
2022-12-18T09:26:47.731Z,43.86
2022-12-18T09:26:58.086Z,43.84
2022-12-18T09:27:07.393Z,43.87
2022-12-18T09:27:18.937Z,43.86
2022-12-18T09:27:30.287Z,43.86
2022-12-18T09:27:42.016Z,43.88
2022-12-18T09:27:53.303Z,43.86
2022-12-18T09:28:04.859Z,43.85
2022-12-18T09:28:16.145Z,43.87
2022-12-18T09:28:27.687Z,43.85
2022-12-18T09:28:39.383Z,43.86
2022-12-18T09:28:51.161Z,43.87
2022-12-18T09:29:02.495Z,43.84
2022-12-18T09:29:14.059Z,43.86
2022-12-18T09:29:26.327Z,43.81
2022-12-18T09:29:37.620Z,43.82
2022-12-18T09:29:49.155Z,43.84
2022-12-18T09:30:00.437Z,43.86
2022-12-18T09:30:11.975Z,43.84
2022-12-18T09:30:23.294Z,43.85
2022-12-18T09:30:34.991Z,43.84
2022-12-18T09:30:47.315Z,43.82
2022-12-18T09:30:58.733Z,43.82
2022-12-18T09:31:10.353Z,43.81
2022-12-18T09:31:21.735Z,43.84
2022-12-18T09:31:33.343Z,43.83
2022-12-18T09:31:44.627Z,43.85
2022-12-18T09:31:56.177Z,43.81
2022-12-18T09:32:07.465Z,43.82
2022-12-18T09:32:22.516Z,43.83
2022-12-18T09:32:29.765Z,43.88
2022-12-18T09:32:41.044Z,43.85
2022-12-18T09:32:52.575Z,43.84
2022-12-18T09:33:03.976Z,43.82
2022-12-18T09:33:16.138Z,43.82
2022-12-18T09:33:27.409Z,43.84
2022-12-18T09:33:39.533Z,43.85
2022-12-18T09:33:51.258Z,43.83
2022-12-18T09:34:02.806Z,43.83
2022-12-18T09:34:14.316Z,43.82
2022-12-18T09:34:25.860Z,43.82
2022-12-18T09:34:37.145Z,43.82
2022-12-18T09:34:48.690Z,43.81
2022-12-18T09:34:59.974Z,43.80
2022-12-18T09:35:11.518Z,43.81
2022-12-18T09:35:22.802Z,43.81
2022-12-18T09:35:34.339Z,43.82
2022-12-18T09:35:45.621Z,43.79
2022-12-18T09:35:57.178Z,43.80
2022-12-18T09:36:08.471Z,43.80
2022-12-18T09:36:20.015Z,43.81
2022-12-18T09:36:30.979Z,43.79
2022-12-18T09:36:42.512Z,43.81
2022-12-18T09:36:52.945Z,43.76
2022-12-18T09:37:04.623Z,43.79
2022-12-18T09:37:15.907Z,43.79
2022-12-18T09:37:27.452Z,43.80
2022-12-18T09:37:38.735Z,43.80
2022-12-18T09:37:50.295Z,43.80
2022-12-18T09:38:01.579Z,43.79
2022-12-18T09:38:13.118Z,43.79
2022-12-18T09:38:24.409Z,43.77
2022-12-18T09:38:35.957Z,43.77
2022-12-18T09:38:47.233Z,43.78
2022-12-18T09:38:58.771Z,43.77
2022-12-18T09:39:10.060Z,43.79
2022-12-18T09:39:24.244Z,43.77
2022-12-18T09:39:33.480Z,43.81
2022-12-18T09:39:45.023Z,43.77
2022-12-18T09:39:56.308Z,43.77
2022-12-18T09:40:07.838Z,43.79
2022-12-18T09:40:19.153Z,43.76
2022-12-18T09:40:30.686Z,43.77
2022-12-18T09:40:41.970Z,43.75
2022-12-18T09:40:53.517Z,43.75
2022-12-18T09:41:04.800Z,43.73
2022-12-18T09:41:16.350Z,43.76
2022-12-18T09:41:27.657Z,43.76
2022-12-18T09:41:39.206Z,43.77
2022-12-18T09:41:50.482Z,43.75
2022-12-18T09:42:00.858Z,43.81
2022-12-18T09:42:12.402Z,43.76
2022-12-18T09:42:23.688Z,43.78
2022-12-18T09:42:35.223Z,43.75
2022-12-18T09:42:46.494Z,43.76
2022-12-18T09:42:58.046Z,43.74
2022-12-18T09:43:09.343Z,43.75
2022-12-18T09:43:21.245Z,43.78
2022-12-18T09:43:32.523Z,43.74
2022-12-18T09:43:44.068Z,43.76
2022-12-18T09:43:55.367Z,43.77
2022-12-18T09:44:06.916Z,43.75
2022-12-18T09:44:18.244Z,43.74
2022-12-18T09:44:30.047Z,43.74
2022-12-18T09:44:45.169Z,43.77
2022-12-18T09:44:52.904Z,43.92
2022-12-18T09:45:04.293Z,43.83
2022-12-18T09:45:15.957Z,43.79
2022-12-18T09:45:27.318Z,43.76
2022-12-18T09:45:38.861Z,43.75
2022-12-18T09:45:50.301Z,43.74
2022-12-18T09:46:01.928Z,43.75
2022-12-18T09:46:13.307Z,43.76
2022-12-18T09:46:24.930Z,43.73
2022-12-18T09:46:36.288Z,43.75
2022-12-18T09:46:47.892Z,43.74
2022-12-18T09:46:59.269Z,43.75
2022-12-18T09:47:10.826Z,43.72
2022-12-18T09:47:22.121Z,43.73
2022-12-18T09:47:33.665Z,43.73
2022-12-18T09:47:44.939Z,43.72
2022-12-18T09:47:56.478Z,43.75
2022-12-18T09:48:07.884Z,43.71
2022-12-18T09:48:19.453Z,43.73
2022-12-18T09:48:30.741Z,43.71
2022-12-18T09:48:42.888Z,43.72
2022-12-18T09:48:52.286Z,43.66
2022-12-18T09:49:03.844Z,43.70
2022-12-18T09:49:15.138Z,43.69
2022-12-18T09:49:26.685Z,43.71
2022-12-18T09:49:37.980Z,43.72
2022-12-18T09:49:49.511Z,43.71
2022-12-18T09:50:00.791Z,43.71
2022-12-18T09:50:17.189Z,43.73
2022-12-18T09:50:24.250Z,43.81
2022-12-18T09:50:35.529Z,43.73
2022-12-18T09:50:47.825Z,43.73
2022-12-18T09:50:59.130Z,43.72
2022-12-18T09:51:10.657Z,43.71
2022-12-18T09:51:21.937Z,43.73
2022-12-18T09:51:33.482Z,43.70
2022-12-18T09:51:44.750Z,43.71
2022-12-18T09:51:56.289Z,43.71
2022-12-18T09:52:07.574Z,43.71
2022-12-18T09:52:19.206Z,43.72
2022-12-18T09:52:30.520Z,43.71
2022-12-18T09:52:42.068Z,43.70
2022-12-18T09:52:53.364Z,43.73
2022-12-18T09:53:04.937Z,43.70
2022-12-18T09:53:15.591Z,43.71
2022-12-18T09:53:27.129Z,43.69
2022-12-18T09:53:38.415Z,43.70
2022-12-18T09:53:49.955Z,43.71
2022-12-18T09:54:01.237Z,43.69
2022-12-18T09:54:12.769Z,43.69
2022-12-18T09:54:24.057Z,43.70
2022-12-18T09:54:35.603Z,43.69
2022-12-18T09:54:46.943Z,43.68
2022-12-18T09:54:58.487Z,43.67
2022-12-18T09:55:09.761Z,43.68
2022-12-18T09:55:21.293Z,43.68
2022-12-18T09:55:37.216Z,43.70
2022-12-18T09:55:44.495Z,43.85
2022-12-18T09:55:55.015Z,43.75
2022-12-18T09:56:06.554Z,43.72
2022-12-18T09:56:17.838Z,43.70
2022-12-18T09:56:29.383Z,43.68
2022-12-18T09:56:40.693Z,43.70
2022-12-18T09:56:52.253Z,43.69
2022-12-18T09:57:03.551Z,43.69
2022-12-18T09:57:15.101Z,43.67
2022-12-18T09:57:26.391Z,43.67
2022-12-18T09:57:37.943Z,43.71
2022-12-18T09:57:49.232Z,43.68
2022-12-18T09:58:00.771Z,43.65
2022-12-18T09:58:12.050Z,43.67
2022-12-18T09:58:23.583Z,43.69
2022-12-18T09:58:34.870Z,43.67
2022-12-18T09:58:46.420Z,43.65
2022-12-18T09:58:57.707Z,43.66
2022-12-18T09:59:09.247Z,43.66
2022-12-18T09:59:20.542Z,43.68
2022-12-18T09:59:32.099Z,43.66
2022-12-18T09:59:43.386Z,43.68
2022-12-18T09:59:54.959Z,43.65
2022-12-18T10:00:06.237Z,43.67
2022-12-18T10:00:17.782Z,43.67
2022-12-18T10:00:29.076Z,43.67
2022-12-18T10:00:40.661Z,43.65
2022-12-18T10:00:51.946Z,43.67
2022-12-18T10:01:03.492Z,43.66
2022-12-18T10:01:14.910Z,43.69
2022-12-18T10:01:32.017Z,43.64
2022-12-18T10:01:44.255Z,43.75
2022-12-18T10:01:50.489Z,43.81
2022-12-18T10:02:01.967Z,43.75
2022-12-18T10:02:13.700Z,43.72
2022-12-18T10:02:25.269Z,43.70
2022-12-18T10:02:37.016Z,43.65
2022-12-18T10:02:48.585Z,43.68
2022-12-18T10:03:00.483Z,43.66
2022-12-18T10:03:12.212Z,43.71
2022-12-18T10:03:23.867Z,43.69
2022-12-18T10:03:35.140Z,43.66
2022-12-18T10:03:46.683Z,43.68
2022-12-18T10:03:58.017Z,43.65
2022-12-18T10:04:09.702Z,43.66
2022-12-18T10:04:21.067Z,43.68
2022-12-18T10:04:32.675Z,43.65
2022-12-18T10:04:42.833Z,43.60
2022-12-18T10:04:54.492Z,43.63
2022-12-18T10:05:05.814Z,43.66
2022-12-18T10:05:17.345Z,43.63
2022-12-18T10:05:28.632Z,43.62
2022-12-18T10:05:40.183Z,43.65
2022-12-18T10:05:51.495Z,43.62
2022-12-18T10:06:03.053Z,43.65
2022-12-18T10:06:14.334Z,43.63
2022-12-18T10:06:25.868Z,43.65
2022-12-18T10:06:37.161Z,43.64
2022-12-18T10:06:48.744Z,43.61
2022-12-18T10:07:03.154Z,43.63
2022-12-18T10:07:11.954Z,43.79
2022-12-18T10:07:23.241Z,43.73
2022-12-18T10:07:34.800Z,43.63
2022-12-18T10:07:46.085Z,43.66
2022-12-18T10:07:57.648Z,43.64
2022-12-18T10:08:08.941Z,43.65
2022-12-18T10:08:20.500Z,43.64
2022-12-18T10:08:31.796Z,43.62
2022-12-18T10:08:43.784Z,43.63
2022-12-18T10:08:55.413Z,43.61
2022-12-18T10:09:06.703Z,43.60
2022-12-18T10:09:18.255Z,43.63
2022-12-18T10:09:29.552Z,43.61
2022-12-18T10:09:41.109Z,43.60
2022-12-18T10:09:52.413Z,43.65
2022-12-18T10:10:03.966Z,43.61
2022-12-18T10:10:15.276Z,43.61
2022-12-18T10:10:26.825Z,43.61
2022-12-18T10:10:38.118Z,43.61
2022-12-18T10:10:49.669Z,43.62
2022-12-18T10:10:59.701Z,43.58
2022-12-18T10:11:11.261Z,43.58
2022-12-18T10:11:22.551Z,43.61
2022-12-18T10:11:34.090Z,43.61
2022-12-18T10:11:45.386Z,43.61
2022-12-18T10:11:56.944Z,43.60
2022-12-18T10:12:08.237Z,43.61
2022-12-18T10:12:19.793Z,43.64
2022-12-18T10:12:31.078Z,43.61
2022-12-18T10:12:42.624Z,43.60
2022-12-18T10:12:53.913Z,43.63
2022-12-18T10:13:05.478Z,43.58
2022-12-18T10:13:16.767Z,43.61
2022-12-18T10:13:28.316Z,43.61
2022-12-18T10:13:39.602Z,43.57
2022-12-18T10:13:51.139Z,43.59
2022-12-18T10:14:02.408Z,43.59
2022-12-18T10:14:13.941Z,43.58
2022-12-18T10:14:25.225Z,43.58
2022-12-18T10:14:36.760Z,43.59
2022-12-18T10:14:48.063Z,43.61
2022-12-18T10:14:59.597Z,43.60
2022-12-18T10:15:10.874Z,43.60
2022-12-18T10:15:22.441Z,43.60
2022-12-18T10:15:33.782Z,43.61
2022-12-18T10:15:45.450Z,43.59
2022-12-18T10:15:56.873Z,43.60
2022-12-18T10:16:08.519Z,43.60
2022-12-18T10:16:19.905Z,43.60
2022-12-18T10:16:31.515Z,43.60
2022-12-18T10:16:42.801Z,43.59
2022-12-18T10:16:54.342Z,43.59
2022-12-18T10:17:05.629Z,43.60
2022-12-18T10:17:17.173Z,43.60
2022-12-18T10:17:29.468Z,43.55
2022-12-18T10:17:40.753Z,43.58
2022-12-18T10:17:52.289Z,43.59
2022-12-18T10:18:03.585Z,43.57
2022-12-18T10:18:21.595Z,43.58
2022-12-18T10:18:27.051Z,43.67
2022-12-18T10:18:38.550Z,43.64
2022-12-18T10:18:50.355Z,43.62
2022-12-18T10:19:01.644Z,43.61
2022-12-18T10:19:13.190Z,43.58
2022-12-18T10:19:24.476Z,43.61
2022-12-18T10:19:36.020Z,43.59
2022-12-18T10:19:47.305Z,43.58
2022-12-18T10:19:58.860Z,43.58
2022-12-18T10:20:10.152Z,43.61
2022-12-18T10:20:21.707Z,43.58
2022-12-18T10:20:33.055Z,43.59
2022-12-18T10:20:44.613Z,43.60
2022-12-18T10:20:55.908Z,43.60
2022-12-18T10:21:07.447Z,43.58
2022-12-18T10:21:17.668Z,43.55
2022-12-18T10:21:29.231Z,43.57
2022-12-18T10:21:40.523Z,43.59
2022-12-18T10:21:52.070Z,43.59
2022-12-18T10:22:03.388Z,43.57
2022-12-18T10:22:14.952Z,43.57
2022-12-18T10:22:26.239Z,43.57
2022-12-18T10:22:36.272Z,43.61
2022-12-18T10:22:47.832Z,43.58
2022-12-18T10:22:59.130Z,43.56
2022-12-18T10:23:10.688Z,43.57
2022-12-18T10:23:21.985Z,43.57
2022-12-18T10:23:33.536Z,43.56
2022-12-18T10:23:48.148Z,43.56
2022-12-18T10:23:55.493Z,43.71
2022-12-18T10:24:06.786Z,43.63
2022-12-18T10:24:18.324Z,43.62
2022-12-18T10:24:29.605Z,43.58
2022-12-18T10:24:41.160Z,43.55
2022-12-18T10:24:52.446Z,43.56
2022-12-18T10:25:04.005Z,43.59
2022-12-18T10:25:15.287Z,43.58
2022-12-18T10:25:26.816Z,43.56
2022-12-18T10:25:38.111Z,43.55
2022-12-18T10:25:49.642Z,43.57
2022-12-18T10:26:00.916Z,43.57
2022-12-18T10:26:12.462Z,43.55
2022-12-18T10:26:23.747Z,43.56
2022-12-18T10:26:35.281Z,43.54
2022-12-18T10:26:46.558Z,43.55
2022-12-18T10:26:58.094Z,43.55
2022-12-18T10:27:09.385Z,43.57
2022-12-18T10:27:20.927Z,43.53
2022-12-18T10:27:32.201Z,43.54
2022-12-18T10:27:42.226Z,43.60
2022-12-18T10:27:53.758Z,43.57
2022-12-18T10:28:05.035Z,43.56
2022-12-18T10:28:16.579Z,43.56
2022-12-18T10:28:27.877Z,43.58
2022-12-18T10:28:39.919Z,43.57
2022-12-18T10:28:51.802Z,43.51
2022-12-18T10:29:05.885Z,43.48
2022-12-18T10:29:15.112Z,43.54
2022-12-18T10:29:26.692Z,43.55
2022-12-18T10:29:37.972Z,43.56
2022-12-18T10:29:49.516Z,43.57
2022-12-18T10:30:00.805Z,43.54
2022-12-18T10:30:12.348Z,43.56
2022-12-18T10:30:23.635Z,43.57
2022-12-18T10:30:35.173Z,43.55
2022-12-18T10:30:46.628Z,43.54
2022-12-18T10:30:58.252Z,43.57
2022-12-18T10:31:09.629Z,43.57
2022-12-18T10:31:21.255Z,43.56
2022-12-18T10:31:31.716Z,43.61
2022-12-18T10:31:43.099Z,43.57
2022-12-18T10:31:54.690Z,43.55
2022-12-18T10:32:05.993Z,43.56
2022-12-18T10:32:17.541Z,43.58
2022-12-18T10:32:28.820Z,43.56
2022-12-18T10:32:40.363Z,43.55
2022-12-18T10:32:51.665Z,43.58
2022-12-18T10:33:03.215Z,43.55
2022-12-18T10:33:14.503Z,43.57
2022-12-18T10:33:26.165Z,43.56
2022-12-18T10:33:37.438Z,43.59
2022-12-18T10:33:49.002Z,43.55
2022-12-18T10:34:00.312Z,43.58
2022-12-18T10:34:11.855Z,43.55
2022-12-18T10:34:23.131Z,43.56
2022-12-18T10:34:34.690Z,43.56
2022-12-18T10:34:45.985Z,43.54
2022-12-18T10:35:00.481Z,43.52
2022-12-18T10:35:08.085Z,43.61
2022-12-18T10:35:19.366Z,43.58
2022-12-18T10:35:30.924Z,43.54
2022-12-18T10:35:42.203Z,43.54
2022-12-18T10:35:53.961Z,43.55
2022-12-18T10:36:05.244Z,43.58
2022-12-18T10:36:16.789Z,43.56
2022-12-18T10:36:28.079Z,43.54
2022-12-18T10:36:39.615Z,43.57
2022-12-18T10:36:50.910Z,43.58
2022-12-18T10:37:02.451Z,43.54
2022-12-18T10:37:13.725Z,43.55
2022-12-18T10:37:25.272Z,43.55
2022-12-18T10:37:36.557Z,43.54
2022-12-18T10:37:48.379Z,43.55
2022-12-18T10:37:59.714Z,43.56
2022-12-18T10:38:11.258Z,43.56
2022-12-18T10:38:22.671Z,43.55
2022-12-18T10:38:34.420Z,43.56
2022-12-18T10:38:45.720Z,43.55
2022-12-18T10:38:57.278Z,43.54
2022-12-18T10:39:08.559Z,43.55
2022-12-18T10:39:20.113Z,43.55
2022-12-18T10:39:31.408Z,43.55
2022-12-18T10:39:42.968Z,43.54
2022-12-18T10:39:54.269Z,43.55
2022-12-18T10:40:05.819Z,43.54
2022-12-18T10:40:22.324Z,43.57
2022-12-18T10:40:29.049Z,43.71
2022-12-18T10:40:40.347Z,43.62
2022-12-18T10:40:51.901Z,43.56
2022-12-18T10:41:03.269Z,43.56
2022-12-18T10:41:14.822Z,43.54
2022-12-18T10:41:26.117Z,43.55
2022-12-18T10:41:37.656Z,43.56
2022-12-18T10:41:48.959Z,43.55
2022-12-18T10:42:00.515Z,43.54
2022-12-18T10:42:11.795Z,43.57
2022-12-18T10:42:23.328Z,43.55
2022-12-18T10:42:34.616Z,43.53
2022-12-18T10:42:46.157Z,43.55
2022-12-18T10:42:57.442Z,43.54
2022-12-18T10:43:08.985Z,43.53
2022-12-18T10:43:20.268Z,43.57
2022-12-18T10:43:31.814Z,43.55
2022-12-18T10:43:43.089Z,43.55
2022-12-18T10:43:54.631Z,43.54
2022-12-18T10:44:05.929Z,43.55
2022-12-18T10:44:17.479Z,43.55
2022-12-18T10:44:28.769Z,43.55
2022-12-18T10:44:40.345Z,43.56
2022-12-18T10:44:51.626Z,43.56
2022-12-18T10:45:03.168Z,43.53
2022-12-18T10:45:14.459Z,43.51
2022-12-18T10:45:24.607Z,43.56
2022-12-18T10:45:36.178Z,43.54
2022-12-18T10:45:47.461Z,43.54
2022-12-18T10:45:59.070Z,43.54
2022-12-18T10:46:10.600Z,43.54
2022-12-18T10:46:22.243Z,43.51
2022-12-18T10:46:33.650Z,43.57
2022-12-18T10:46:45.369Z,43.53
2022-12-18T10:46:56.761Z,43.56
2022-12-18T10:47:11.779Z,43.55
2022-12-18T10:47:19.166Z,43.61
2022-12-18T10:47:30.457Z,43.54
2022-12-18T10:47:42.002Z,43.52
2022-12-18T10:47:53.287Z,43.55
2022-12-18T10:48:04.822Z,43.55
2022-12-18T10:48:16.102Z,43.53
2022-12-18T10:48:27.655Z,43.54
2022-12-18T10:48:39.434Z,43.53
2022-12-18T10:48:51.201Z,43.56
2022-12-18T10:49:02.483Z,43.54
2022-12-18T10:49:14.028Z,43.52
2022-12-18T10:49:25.318Z,43.50
2022-12-18T10:49:36.866Z,43.55
2022-12-18T10:49:48.163Z,43.52
2022-12-18T10:49:59.719Z,43.55
2022-12-18T10:50:11.024Z,43.52
2022-12-18T10:50:26.088Z,43.53
2022-12-18T10:51:01.770Z,43.60
2022-12-18T10:51:10.482Z,43.64
2022-12-18T10:51:12.180Z,43.71
2022-12-18T10:51:13.655Z,43.69
2022-12-18T10:51:20.254Z,43.68
2022-12-18T10:51:31.871Z,43.58
2022-12-18T10:51:43.533Z,43.58
2022-12-18T10:51:54.819Z,43.59
2022-12-18T10:52:06.354Z,43.56
2022-12-18T10:52:16.417Z,43.49
2022-12-18T10:52:28.348Z,43.53
2022-12-18T10:52:45.120Z,43.56
2022-12-18T10:52:51.889Z,43.72
2022-12-18T10:53:03.171Z,43.62
2022-12-18T10:53:14.719Z,43.58
2022-12-18T10:53:26.194Z,43.56
2022-12-18T10:53:37.759Z,43.55
2022-12-18T10:53:49.046Z,43.56
2022-12-18T10:54:01.254Z,43.56
2022-12-18T10:54:11.802Z,43.52
2022-12-18T10:54:23.342Z,43.51
2022-12-18T10:54:34.629Z,43.54
2022-12-18T10:54:46.175Z,43.54
2022-12-18T10:54:57.466Z,43.52
2022-12-18T10:55:09.016Z,43.54
2022-12-18T10:55:20.308Z,43.53
2022-12-18T10:55:30.627Z,43.67
2022-12-18T10:55:41.919Z,43.60
2022-12-18T10:55:53.458Z,43.56
2022-12-18T10:56:04.754Z,43.54
2022-12-18T10:56:16.310Z,43.53
2022-12-18T10:56:27.634Z,43.55
2022-12-18T10:56:39.193Z,43.56
2022-12-18T10:56:50.512Z,43.55
2022-12-18T10:57:02.048Z,43.52
2022-12-18T10:57:13.328Z,43.51
2022-12-18T10:57:24.946Z,43.54
2022-12-18T10:57:36.254Z,43.51
2022-12-18T10:57:47.798Z,43.52
2022-12-18T10:57:59.079Z,43.52
2022-12-18T10:58:10.647Z,43.51
2022-12-18T10:58:26.440Z,43.51
2022-12-18T10:58:33.894Z,43.71
2022-12-18T10:58:45.643Z,43.59
2022-12-18T10:58:55.166Z,43.58
2022-12-18T10:59:06.700Z,43.54
2022-12-18T10:59:17.976Z,43.52
2022-12-18T10:59:29.513Z,43.52